createdAt,value
2022-12-03T00:02:13.269Z,10.02
2022-12-03T00:04:39.701Z,10.55
2022-12-03T00:07:06.085Z,9.95
2022-12-03T00:09:32.490Z,9.57
2022-12-03T00:11:58.920Z,9.75
2022-12-03T00:14:25.298Z,9.48
2022-12-03T00:16:51.655Z,9.07
2022-12-03T00:19:18.031Z,9.80
2022-12-03T00:21:44.409Z,10.00
2022-12-03T00:24:10.803Z,9.43
2022-12-03T00:26:37.160Z,10.00
2022-12-03T00:29:03.681Z,9.23
2022-12-03T00:31:30.149Z,9.98
2022-12-03T00:33:56.596Z,9.98
2022-12-03T00:36:23.082Z,8.88
2022-12-03T00:38:49.489Z,10.30
2022-12-03T00:41:15.863Z,9.43
2022-12-03T00:43:42.249Z,8.88
2022-12-03T00:46:08.633Z,8.45
2022-12-03T00:48:35.066Z,9.15
2022-12-03T00:51:01.438Z,8.57
2022-12-03T00:53:27.821Z,8.75
2022-12-03T00:55:54.196Z,8.40
2022-12-03T00:58:20.628Z,8.63
2022-12-03T01:00:46.998Z,8.07
2022-12-03T01:03:13.374Z,7.55
2022-12-03T01:05:39.789Z,8.23
2022-12-03T01:08:06.247Z,8.00
2022-12-03T01:10:32.638Z,8.00
2022-12-03T01:12:59.003Z,7.22
2022-12-03T01:15:25.348Z,8.05
2022-12-03T01:17:54.225Z,7.90
2022-12-03T01:20:20.963Z,8.60
2022-12-03T01:22:47.391Z,7.78
2022-12-03T01:25:13.843Z,8.10
2022-12-03T01:27:40.380Z,7.72
2022-12-03T01:30:07.124Z,8.02
2022-12-03T01:32:33.492Z,7.15
2022-12-03T01:35:00.088Z,6.93
2022-12-03T01:37:26.842Z,7.78
2022-12-03T01:39:53.365Z,6.53
2022-12-03T01:42:21.908Z,6.43
2022-12-03T01:44:56.782Z,6.72
2022-12-03T01:47:26.563Z,6.30
2022-12-03T01:49:54.504Z,6.10
2022-12-03T01:52:26.783Z,5.70
2022-12-03T01:54:54.898Z,5.60
2022-12-03T01:57:29.818Z,6.00
2022-12-03T01:59:57.116Z,7.50
2022-12-03T02:02:24.879Z,7.30
2022-12-03T02:04:53.105Z,6.88
2022-12-03T02:07:37.933Z,6.95
2022-12-03T02:10:04.546Z,6.57
2022-12-03T02:12:39.388Z,7.43
2022-12-03T02:15:06.189Z,6.75
2022-12-03T02:17:32.715Z,6.75
2022-12-03T02:19:59.812Z,6.70
2022-12-03T02:22:32.108Z,6.83
2022-12-03T02:25:16.827Z,6.03
2022-12-03T02:27:43.583Z,6.03
2022-12-03T02:30:10.832Z,6.38
2022-12-03T02:32:37.429Z,5.90
2022-12-03T02:35:03.883Z,6.07
2022-12-03T02:37:32.426Z,6.13
2022-12-03T02:40:00.171Z,6.05
2022-12-03T02:42:35.752Z,6.30
2022-12-03T02:45:10.872Z,6.70
2022-12-03T02:48:06.717Z,5.97
2022-12-03T02:50:34.621Z,5.82
2022-12-03T02:53:02.184Z,6.32
2022-12-03T02:55:34.940Z,6.13
2022-12-03T02:58:04.018Z,6.57
2022-12-03T03:00:30.627Z,6.55
2022-12-03T03:02:57.175Z,7.35
2022-12-03T03:05:23.897Z,6.82
2022-12-03T03:07:53.142Z,7.05
2022-12-03T03:10:21.919Z,7.40
2022-12-03T03:12:48.446Z,7.22
2022-12-03T03:15:15.070Z,6.70
2022-12-03T03:17:42.250Z,7.13
2022-12-03T03:20:09.943Z,6.63
2022-12-03T03:22:37.918Z,6.85
2022-12-03T03:27:30.660Z,7.22
2022-12-03T03:29:57.997Z,7.68
2022-12-03T03:32:25.428Z,7.57
2022-12-03T03:34:52.089Z,7.68
2022-12-03T03:37:18.912Z,7.90
2022-12-03T03:39:45.348Z,6.97
2022-12-03T03:42:11.888Z,7.20
2022-12-03T03:44:38.335Z,7.53
2022-12-03T03:47:04.827Z,8.45
2022-12-03T03:49:31.231Z,7.93
2022-12-03T03:51:57.626Z,7.47
2022-12-03T03:54:24.204Z,8.38
2022-12-03T03:56:50.793Z,7.68
2022-12-03T03:59:17.335Z,8.45
2022-12-03T04:01:44.200Z,7.72
2022-12-03T04:04:17.747Z,8.13
2022-12-03T04:06:44.135Z,7.10
2022-12-03T04:09:10.500Z,7.85
2022-12-03T04:11:55.694Z,8.05
2022-12-03T04:14:22.091Z,8.20
2022-12-03T04:16:48.544Z,8.27
2022-12-03T04:19:15.004Z,8.05
2022-12-03T04:22:00.132Z,6.85
2022-12-03T04:24:26.532Z,7.82
2022-12-03T04:27:11.532Z,7.57
2022-12-03T04:29:37.907Z,7.82
2022-12-03T04:32:22.792Z,7.57
2022-12-03T04:35:07.701Z,8.52
2022-12-03T04:37:34.235Z,8.32
2022-12-03T04:40:00.595Z,9.07
2022-12-03T04:42:26.955Z,9.60
2022-12-03T04:44:53.687Z,8.90
2022-12-03T04:47:21.264Z,9.07
2022-12-03T04:49:48.816Z,9.45
2022-12-03T04:52:16.092Z,9.20
2022-12-03T04:54:42.906Z,10.02
2022-12-03T04:57:09.806Z,9.52
2022-12-03T04:59:36.895Z,8.70
2022-12-03T05:02:04.094Z,9.63
2022-12-03T05:04:30.706Z,9.00
2022-12-03T05:06:57.092Z,9.85
2022-12-03T05:09:23.525Z,9.32
2022-12-03T05:11:49.895Z,9.98
2022-12-03T05:14:16.280Z,9.70
2022-12-03T05:16:42.759Z,9.05
2022-12-03T05:19:10.027Z,9.85
2022-12-03T05:21:36.487Z,8.57
2022-12-03T05:24:03.390Z,9.38
2022-12-03T05:26:29.795Z,8.43
2022-12-03T05:28:56.177Z,9.50
2022-12-03T05:31:22.644Z,8.82
2022-12-03T05:33:49.305Z,9.52
2022-12-03T05:36:15.955Z,9.00
2022-12-03T05:38:42.331Z,8.70
2022-12-03T05:41:28.647Z,8.63
2022-12-03T05:43:55.493Z,8.55
2022-12-03T05:46:21.907Z,7.47
2022-12-03T05:48:48.361Z,7.72
2022-12-03T05:51:14.783Z,8.65
2022-12-03T05:53:41.213Z,8.38
2022-12-03T05:56:07.681Z,8.43
2022-12-03T05:58:34.061Z,8.05
2022-12-03T06:01:00.440Z,9.10
2022-12-03T06:03:27.160Z,7.57
2022-12-03T06:05:53.677Z,8.05
2022-12-03T06:08:20.047Z,8.02
2022-12-03T06:10:46.521Z,8.65
2022-12-03T06:13:12.884Z,7.65
2022-12-03T06:15:43.749Z,8.02
2022-12-03T06:18:10.672Z,7.93
2022-12-03T06:20:37.052Z,8.00
2022-12-03T06:23:03.455Z,8.65
2022-12-03T06:25:29.858Z,8.23
2022-12-03T06:27:56.262Z,9.27
2022-12-03T06:30:22.711Z,7.95
2022-12-03T06:32:49.075Z,9.45
2022-12-03T06:35:15.488Z,8.35
2022-12-03T06:37:42.175Z,7.05
2022-12-03T06:40:08.778Z,6.93
2022-12-03T06:42:35.139Z,6.43
2022-12-03T06:45:01.508Z,6.85
2022-12-03T06:47:27.869Z,6.70
2022-12-03T06:49:54.334Z,6.53
2022-12-03T06:52:20.720Z,6.07
2022-12-03T06:54:47.141Z,5.63
2022-12-03T06:57:13.552Z,5.47
2022-12-03T06:59:39.946Z,5.68
2022-12-03T07:02:06.737Z,6.00
2022-12-03T07:04:33.240Z,6.07
2022-12-03T07:06:59.642Z,6.40
2022-12-03T07:09:26.051Z,5.32
2022-12-03T07:11:52.662Z,6.10
2022-12-03T07:14:19.126Z,6.00
2022-12-03T07:16:45.601Z,5.68
2022-12-03T07:19:12.352Z,5.93
2022-12-03T07:21:38.757Z,6.10
2022-12-03T07:24:05.703Z,6.30
2022-12-03T07:26:32.175Z,6.50
2022-12-03T07:28:58.767Z,6.40
2022-12-03T07:31:25.183Z,6.43
2022-12-03T07:33:51.567Z,5.63
2022-12-03T07:36:17.966Z,6.53
2022-12-03T07:38:44.786Z,6.25
2022-12-03T07:41:11.311Z,6.57
2022-12-03T07:43:37.668Z,5.70
2022-12-03T07:46:04.071Z,5.90
2022-12-03T07:48:30.497Z,5.60
2022-12-03T07:50:56.933Z,6.10
2022-12-03T07:53:23.347Z,5.82
2022-12-03T07:55:49.736Z,5.68
2022-12-03T07:58:16.082Z,5.35
2022-12-03T08:00:42.477Z,5.60
2022-12-03T08:03:08.872Z,5.80
2022-12-03T08:05:35.282Z,5.97
2022-12-03T08:08:01.843Z,4.80
2022-12-03T08:10:28.265Z,6.47
2022-12-03T08:12:55.326Z,5.15
2022-12-03T08:15:25.374Z,5.70
2022-12-03T08:17:54.846Z,5.72
2022-12-03T08:20:25.905Z,5.72
2022-12-03T08:22:53.250Z,5.55
2022-12-03T08:25:27.290Z,5.22
2022-12-03T08:28:07.512Z,5.13
2022-12-03T08:30:33.901Z,5.50
2022-12-03T08:33:00.305Z,5.85
2022-12-03T08:35:28.322Z,5.55
2022-12-03T08:40:23.322Z,5.07
2022-12-03T08:42:50.105Z,5.43
2022-12-03T08:45:35.225Z,5.28
2022-12-03T08:48:03.961Z,5.72
2022-12-03T08:50:31.498Z,5.25
2022-12-03T08:52:59.698Z,5.65
2022-12-03T08:55:32.563Z,5.25
2022-12-03T08:57:59.391Z,4.85
2022-12-03T09:00:26.328Z,5.35
2022-12-03T09:02:53.932Z,4.68
2022-12-03T09:05:26.245Z,5.25
2022-12-03T09:07:52.656Z,5.00
2022-12-03T09:10:19.050Z,4.82
2022-12-03T09:12:45.490Z,5.10
2022-12-03T09:15:11.969Z,5.22
2022-12-03T09:17:38.611Z,4.75
2022-12-03T09:20:05.686Z,4.90
2022-12-03T09:22:32.186Z,5.47
2022-12-03T09:24:58.584Z,4.55
2022-12-03T09:27:24.948Z,5.15
2022-12-03T09:29:51.454Z,5.30
2022-12-03T09:32:18.772Z,4.68
2022-12-03T09:34:45.514Z,5.15
2022-12-03T09:37:11.917Z,5.15
2022-12-03T09:39:38.307Z,4.80
2022-12-03T09:42:04.855Z,5.00
2022-12-03T09:44:33.187Z,5.30
2022-12-03T09:47:00.655Z,5.53
2022-12-03T09:49:27.875Z,5.50
2022-12-03T09:51:56.178Z,5.00
2022-12-03T09:54:24.272Z,4.60
2022-12-03T09:56:50.870Z,5.30
2022-12-03T09:59:17.621Z,5.45
2022-12-03T10:01:44.324Z,5.15
2022-12-03T10:04:10.987Z,6.07
2022-12-03T10:06:41.104Z,6.55
2022-12-03T10:09:12.525Z,5.68
2022-12-03T10:11:39.104Z,5.30
2022-12-03T10:14:05.885Z,5.43
2022-12-03T10:16:33.816Z,5.40
2022-12-03T10:21:31.286Z,5.22
2022-12-03T10:24:16.572Z,4.97
2022-12-03T10:26:43.626Z,5.68
2022-12-03T10:29:20.343Z,5.20
2022-12-03T10:31:54.339Z,5.05
2022-12-03T10:34:24.761Z,4.95
2022-12-03T10:37:08.256Z,4.70
2022-12-03T10:39:55.714Z,5.28
2022-12-03T10:42:23.417Z,4.88
2022-12-03T10:44:53.831Z,5.35
2022-12-03T10:47:22.571Z,5.38
2022-12-03T10:50:00.880Z,4.60
2022-12-03T10:52:27.284Z,5.38
2022-12-03T10:54:53.996Z,4.22
2022-12-03T10:57:20.590Z,4.38
2022-12-03T10:59:47.018Z,4.80
2022-12-03T11:02:21.174Z,4.00
2022-12-03T11:04:47.707Z,3.90
2022-12-03T11:07:18.533Z,4.40
2022-12-03T11:09:46.175Z,4.00
2022-12-03T11:12:34.648Z,4.60
2022-12-03T11:15:06.483Z,5.28
2022-12-03T11:17:45.194Z,4.13
2022-12-03T11:20:18.102Z,4.65
2022-12-03T11:22:48.207Z,4.53
2022-12-03T11:25:26.838Z,4.90
2022-12-03T11:28:11.604Z,4.38
2022-12-03T11:30:50.780Z,4.15
2022-12-03T11:33:20.459Z,4.40
2022-12-03T11:36:05.363Z,4.50
2022-12-03T11:38:42.623Z,3.72
2022-12-03T11:41:10.495Z,4.30
2022-12-03T11:43:51.937Z,3.50
2022-12-03T11:46:23.171Z,4.45
2022-12-03T11:48:51.157Z,4.00
2022-12-03T11:53:44.780Z,3.70
2022-12-03T11:56:16.158Z,3.53
2022-12-03T11:58:43.665Z,3.42
2022-12-03T12:01:10.069Z,3.60
2022-12-03T12:03:50.078Z,4.32
2022-12-03T12:06:18.042Z,3.60
2022-12-03T12:08:53.612Z,3.28
2022-12-03T12:11:20.900Z,3.13
2022-12-03T12:13:47.264Z,3.20
2022-12-03T12:16:13.771Z,3.17
2022-12-03T12:18:42.087Z,2.90
2022-12-03T12:21:27.471Z,3.05
2022-12-03T12:23:53.821Z,3.50
2022-12-03T12:26:20.212Z,3.13
2022-12-03T12:28:46.636Z,5.95
2022-12-03T12:31:13.084Z,2.83
2022-12-03T12:33:39.507Z,4.35
2022-12-03T12:36:08.848Z,3.47
2022-12-03T12:38:35.227Z,4.50
2022-12-03T12:41:05.011Z,3.72
2022-12-03T12:43:32.977Z,3.65
2022-12-03T12:48:25.901Z,4.57
2022-12-03T12:50:58.660Z,5.55
2022-12-03T12:53:26.553Z,4.75
2022-12-03T12:55:59.388Z,3.22
2022-12-03T12:58:26.525Z,4.20
2022-12-03T13:00:54.648Z,3.90
2022-12-03T13:03:22.958Z,3.10
2022-12-03T13:05:51.113Z,3.63
2022-12-03T13:08:27.990Z,3.25
2022-12-03T13:10:55.707Z,2.90
2022-12-03T13:13:24.166Z,3.42
2022-12-03T13:15:59.921Z,4.50
2022-12-03T13:18:32.536Z,3.25
2022-12-03T13:20:59.347Z,3.70
2022-12-03T13:23:27.396Z,3.28
2022-12-03T13:26:09.504Z,3.53
2022-12-03T13:28:40.972Z,3.47
2022-12-03T13:31:21.975Z,3.28
2022-12-03T13:33:48.851Z,3.25
2022-12-03T13:36:16.615Z,3.88
2022-12-03T13:38:44.263Z,3.83
2022-12-03T13:41:34.641Z,3.35
2022-12-03T13:44:01.133Z,3.78
2022-12-03T13:46:33.959Z,3.50
2022-12-03T13:49:02.028Z,3.50
2022-12-03T13:51:31.626Z,4.97
2022-12-03T13:53:58.932Z,5.22
2022-12-03T13:56:27.864Z,3.42
2022-12-03T13:58:55.053Z,3.70
2022-12-03T14:01:21.708Z,3.35
2022-12-03T14:03:48.303Z,3.72
2022-12-03T14:06:14.700Z,3.38
2022-12-03T14:08:41.136Z,3.70
2022-12-03T14:11:07.791Z,3.20
2022-12-03T14:13:34.233Z,3.50
2022-12-03T14:16:00.722Z,2.60
2022-12-03T14:18:27.190Z,3.60
2022-12-03T14:20:53.611Z,3.35
2022-12-03T14:23:19.973Z,3.00
2022-12-03T14:25:46.483Z,3.00
2022-12-03T14:28:12.871Z,2.90
2022-12-03T14:30:39.245Z,2.47
2022-12-03T14:33:05.663Z,3.08
2022-12-03T14:35:32.212Z,2.33
2022-12-03T14:37:58.616Z,2.60
2022-12-03T14:40:25.089Z,2.83
2022-12-03T14:42:51.566Z,2.83
2022-12-03T14:45:17.916Z,2.53
2022-12-03T14:47:44.311Z,3.10
2022-12-03T14:50:14.227Z,3.05
2022-12-03T14:52:40.803Z,3.03
2022-12-03T14:55:07.379Z,2.88
2022-12-03T14:57:33.730Z,3.20
2022-12-03T15:00:00.116Z,4.35
2022-12-03T15:02:26.600Z,4.70
2022-12-03T15:04:53.042Z,3.80
2022-12-03T15:07:19.391Z,3.65
2022-12-03T15:09:45.787Z,4.38
2022-12-03T15:12:12.163Z,3.63
2022-12-03T15:14:38.616Z,3.60
2022-12-03T15:17:05.062Z,3.90
2022-12-03T15:19:31.482Z,3.45
2022-12-03T15:21:57.896Z,3.67
2022-12-03T15:24:24.282Z,3.20
2022-12-03T15:26:52.263Z,3.50
2022-12-03T15:31:45.032Z,4.43
2022-12-03T15:34:11.552Z,3.25
2022-12-03T15:36:37.981Z,3.45
2022-12-03T15:39:04.517Z,3.85
2022-12-03T15:41:31.094Z,3.80
2022-12-03T15:43:58.760Z,3.83
2022-12-03T15:46:26.113Z,4.10
2022-12-03T15:48:52.559Z,5.00
2022-12-03T15:51:18.930Z,4.07
2022-12-03T15:53:45.331Z,4.20
2022-12-03T15:56:14.765Z,4.75
2022-12-03T15:58:41.242Z,6.53
2022-12-03T16:01:08.589Z,7.18
2022-12-03T16:03:35.170Z,6.82
2022-12-03T16:06:01.564Z,4.05
2022-12-03T16:08:28.031Z,4.38
2022-12-03T16:10:54.434Z,4.88
2022-12-03T16:13:20.836Z,7.25
2022-12-03T16:15:47.295Z,6.43
2022-12-03T16:18:13.687Z,5.20
2022-12-03T16:20:40.115Z,4.47
2022-12-03T16:23:06.515Z,4.47
2022-12-03T16:25:32.878Z,3.53
2022-12-03T16:27:59.250Z,4.00
2022-12-03T16:30:40.894Z,4.40
2022-12-03T16:33:07.275Z,4.82
2022-12-03T16:35:33.657Z,4.40
2022-12-03T16:38:00.132Z,4.38
2022-12-03T16:40:26.612Z,4.20
2022-12-03T16:42:53.004Z,5.10
2022-12-03T16:45:33.086Z,4.85
2022-12-03T16:48:00.112Z,4.65
2022-12-03T16:50:29.845Z,4.18
2022-12-03T16:52:56.555Z,4.43
2022-12-03T16:55:23.010Z,4.43
2022-12-03T16:57:49.496Z,5.38
2022-12-03T17:00:16.241Z,10.55
2022-12-03T17:02:42.694Z,10.88
2022-12-03T17:05:09.138Z,8.27
2022-12-03T17:07:35.606Z,5.60
2022-12-03T17:10:02.165Z,6.35
2022-12-03T17:12:42.332Z,6.97
2022-12-03T17:15:15.021Z,8.63
2022-12-03T17:17:41.492Z,10.57
2022-12-03T17:20:08.687Z,9.13
2022-12-03T17:22:35.272Z,15.30
2022-12-03T17:25:01.750Z,15.23
2022-12-03T17:27:29.507Z,14.30
2022-12-03T17:29:56.205Z,13.18
2022-12-03T17:32:22.672Z,10.00
2022-12-03T17:34:49.079Z,11.52
2022-12-03T17:37:15.460Z,10.15
2022-12-03T17:39:42.029Z,9.65
2022-12-03T17:42:08.411Z,8.55
2022-12-03T17:44:34.760Z,6.55
2022-12-03T17:47:01.214Z,7.50
2022-12-03T17:49:31.469Z,6.93
2022-12-03T17:51:58.302Z,6.65
2022-12-03T17:54:30.507Z,7.47
2022-12-03T17:57:09.790Z,6.70
2022-12-03T17:59:36.221Z,7.28
2022-12-03T18:02:02.701Z,7.00
2022-12-03T18:04:29.261Z,8.82
2022-12-03T18:07:00.643Z,7.63
2022-12-03T18:09:28.606Z,7.22
2022-12-03T18:11:55.068Z,7.50
2022-12-03T18:14:21.422Z,6.45
2022-12-03T18:16:47.809Z,5.95
2022-12-03T18:19:14.237Z,6.65
2022-12-03T18:21:40.627Z,6.78
2022-12-03T18:24:07.270Z,7.40
2022-12-03T18:26:33.703Z,6.65
2022-12-03T18:29:00.087Z,7.57
2022-12-03T18:31:26.576Z,6.82
2022-12-03T18:33:53.605Z,7.20
2022-12-03T18:36:21.462Z,7.10
2022-12-03T18:38:50.993Z,6.88
2022-12-03T18:41:20.880Z,6.70
2022-12-03T18:43:47.248Z,7.10
2022-12-03T18:46:31.291Z,7.30
2022-12-03T18:49:01.188Z,8.02
2022-12-03T18:51:28.689Z,8.35
2022-12-03T18:53:55.118Z,7.03
2022-12-03T18:56:21.501Z,7.93
2022-12-03T18:58:47.927Z,7.78
2022-12-03T19:01:18.924Z,7.30
2022-12-03T19:03:45.544Z,7.95
2022-12-03T19:06:17.197Z,8.45
2022-12-03T19:08:45.569Z,7.95
2022-12-03T19:11:13.290Z,8.15
2022-12-03T19:13:40.494Z,8.18
2022-12-03T19:16:07.767Z,8.95
2022-12-03T19:18:34.547Z,8.85
2022-12-03T19:21:05.519Z,8.43
2022-12-03T19:23:31.899Z,15.90
2022-12-03T19:25:59.689Z,7.97
2022-12-03T19:28:26.960Z,7.95
2022-12-03T19:31:00.256Z,6.95
2022-12-03T19:33:28.664Z,6.90
2022-12-03T19:35:55.610Z,7.60
2022-12-03T19:38:22.912Z,7.25
2022-12-03T19:41:03.096Z,6.88
2022-12-03T19:43:31.792Z,7.82
2022-12-03T19:46:01.677Z,8.50
2022-12-03T19:48:29.617Z,7.15
2022-12-03T19:51:13.523Z,8.05
2022-12-03T19:53:42.989Z,7.85
2022-12-03T19:56:10.802Z,7.82
2022-12-03T19:58:37.540Z,7.68
2022-12-03T20:01:11.688Z,11.40
2022-12-03T20:03:39.519Z,8.15
2022-12-03T20:06:06.389Z,8.38
2022-12-03T20:08:32.820Z,8.35
2022-12-03T20:11:09.296Z,8.18
2022-12-03T20:13:36.676Z,8.73
2022-12-03T20:16:08.626Z,10.85
2022-12-03T20:18:35.643Z,10.07
2022-12-03T20:21:02.384Z,9.13
2022-12-03T20:23:29.011Z,8.57
2022-12-03T20:25:55.376Z,8.50
2022-12-03T20:28:21.788Z,8.13
2022-12-03T20:30:58.205Z,8.65
2022-12-03T20:33:24.624Z,9.30
2022-12-03T20:35:51.838Z,9.65
2022-12-03T20:38:18.209Z,11.35
2022-12-03T20:40:44.571Z,10.88
2022-12-03T20:43:10.952Z,9.43
2022-12-03T20:45:37.362Z,9.95
2022-12-03T20:48:03.875Z,9.65
2022-12-03T20:50:30.338Z,8.88
2022-12-03T20:53:22.616Z,9.48
2022-12-03T20:55:43.035Z,9.88
2022-12-03T20:58:09.415Z,9.82
2022-12-03T21:00:35.825Z,9.60
2022-12-03T21:03:02.315Z,9.23
2022-12-03T21:05:28.755Z,10.23
2022-12-03T21:07:55.198Z,9.27
2022-12-03T21:10:36.619Z,9.57
2022-12-03T21:13:02.998Z,9.23
2022-12-03T21:15:29.343Z,10.10
2022-12-03T21:17:55.784Z,11.80
2022-12-03T21:20:22.216Z,11.52
2022-12-03T21:22:51.845Z,10.25
2022-12-03T21:25:18.233Z,10.27
2022-12-03T21:27:44.596Z,9.77
2022-12-03T21:30:11.122Z,11.55
2022-12-03T21:32:39.033Z,11.23
2022-12-03T21:35:05.636Z,13.23
2022-12-03T21:37:32.030Z,13.75
2022-12-03T21:39:58.409Z,14.38
2022-12-03T21:42:36.612Z,13.73
2022-12-03T21:45:04.146Z,18.15
2022-12-03T21:47:36.658Z,14.95
2022-12-03T21:50:04.170Z,17.17
2022-12-03T21:52:30.568Z,17.00
2022-12-03T21:54:56.988Z,14.05
2022-12-03T21:57:23.359Z,11.27
2022-12-03T21:59:49.746Z,11.35
2022-12-03T22:02:16.365Z,10.70
2022-12-03T22:04:42.820Z,11.80
2022-12-03T22:07:09.194Z,12.38
2022-12-03T22:09:35.742Z,11.88
2022-12-03T22:12:02.192Z,16.40
2022-12-03T22:14:28.664Z,16.92
2022-12-03T22:16:55.197Z,13.35
2022-12-03T22:19:22.371Z,11.45
2022-12-03T22:21:48.985Z,10.97
2022-12-03T22:24:15.353Z,12.07
2022-12-03T22:26:41.812Z,11.13
2022-12-03T22:29:10.300Z,10.68
2022-12-03T22:31:36.691Z,10.65
2022-12-03T22:34:03.564Z,10.23
2022-12-03T22:36:29.926Z,11.50
2022-12-03T22:38:56.419Z,10.88
2022-12-03T22:41:22.814Z,10.68
2022-12-03T22:43:49.716Z,10.90
2022-12-03T22:46:16.422Z,10.05
2022-12-03T22:48:43.522Z,11.63
2022-12-03T22:51:12.166Z,10.82
2022-12-03T22:53:38.666Z,11.82
2022-12-03T22:56:05.125Z,10.27
2022-12-03T22:58:31.775Z,11.85
2022-12-03T23:01:02.657Z,10.20
2022-12-03T23:03:29.740Z,11.45
2022-12-03T23:05:56.266Z,11.27
2022-12-03T23:08:22.816Z,11.20
2022-12-03T23:10:50.260Z,12.27
2022-12-03T23:13:17.018Z,10.55
2022-12-03T23:15:47.294Z,12.27
2022-12-03T23:18:13.907Z,11.15
2022-12-03T23:20:58.930Z,12.20
2022-12-03T23:23:26.384Z,12.25
2022-12-03T23:26:03.668Z,11.35
2022-12-03T23:28:30.873Z,11.60
2022-12-03T23:30:57.503Z,11.45
2022-12-03T23:33:24.268Z,12.10
2022-12-03T23:35:50.681Z,19.88
2022-12-03T23:38:17.085Z,13.48
2022-12-03T23:40:48.042Z,16.15
2022-12-03T23:43:15.069Z,15.90
2022-12-03T23:45:41.563Z,14.20
2022-12-03T23:48:07.967Z,14.88
2022-12-03T23:50:34.951Z,19.52
2022-12-03T23:53:01.319Z,15.30
2022-12-03T23:55:27.709Z,22.50
2022-12-03T23:57:54.133Z,18.40
